createdAt,value
2018-05-11T12:08:28.892Z,42.10
2018-05-11T12:10:57.228Z,42.20
2018-05-11T12:13:25.604Z,42.20
2018-05-11T12:15:53.920Z,43.10
2018-05-11T12:18:22.954Z,43.40
2018-05-11T12:20:50.536Z,41.10
2018-05-11T12:23:18.913Z,40.60
2018-05-11T12:25:47.234Z,40.40
2018-05-11T12:28:15.532Z,41.00
2018-05-11T12:30:43.949Z,39.70
2018-05-11T12:33:12.330Z,38.30
2018-05-11T12:35:40.642Z,36.90
2018-05-11T12:38:09.675Z,36.10
2018-05-11T12:40:37.228Z,37.50
2018-05-11T12:43:05.532Z,39.00
2018-05-11T12:45:33.936Z,38.90
2018-05-11T12:48:02.234Z,39.30
2018-05-11T12:50:30.662Z,38.10
2018-05-11T12:52:59.043Z,39.60
2018-05-11T12:55:27.304Z,40.20
2018-05-11T12:57:55.615Z,40.70
2018-05-11T13:00:23.935Z,39.30
2018-05-11T13:02:52.264Z,40.10
2018-05-11T13:05:20.582Z,38.30
2018-05-11T13:07:48.927Z,38.20
2018-05-11T13:10:17.232Z,35.90
2018-05-11T13:12:45.616Z,35.50
2018-05-11T13:15:13.935Z,36.50
2018-05-11T13:17:42.247Z,38.10
2018-05-11T13:20:10.589Z,38.80
2018-05-11T13:22:38.968Z,38.10
2018-05-11T13:25:07.259Z,36.70
2018-05-11T13:27:35.584Z,36.60
2018-05-11T13:30:03.132Z,34.60
2018-05-11T13:32:31.834Z,32.80
2018-05-11T13:35:00.143Z,35.50
2018-05-11T13:37:27.688Z,34.90
2018-05-11T13:39:55.975Z,36.60
2018-05-11T13:42:24.297Z,37.90
2018-05-11T13:47:21.417Z,38.80
2018-05-11T13:49:49.344Z,37.30
2018-05-11T13:52:17.662Z,36.70
2018-05-11T13:54:46.036Z,36.60
2018-05-11T13:57:14.460Z,36.00
2018-05-11T13:59:42.756Z,36.30
2018-05-11T14:02:11.073Z,36.60
2018-05-11T14:04:39.394Z,37.00
2018-05-11T14:07:08.447Z,38.20
2018-05-11T14:09:35.962Z,37.40
2018-05-11T14:12:04.278Z,38.00
2018-05-11T14:14:31.805Z,40.30
2018-05-11T14:16:59.751Z,40.90
2018-05-11T14:19:28.063Z,40.10
2018-05-11T14:21:56.365Z,39.90
2018-05-11T14:24:24.686Z,36.40
2018-05-11T14:26:53.016Z,36.60
2018-05-11T14:29:21.379Z,35.80
2018-05-11T14:31:49.708Z,37.50
2018-05-11T14:34:18.009Z,37.10
2018-05-11T14:36:46.351Z,38.50
2018-05-11T14:39:14.700Z,40.90
2018-05-11T14:41:43.055Z,40.50
2018-05-11T14:44:12.087Z,41.70
2018-05-11T14:46:40.071Z,38.70
2018-05-11T14:49:08.033Z,40.30
2018-05-11T14:51:36.377Z,40.30
2018-05-11T14:54:04.673Z,39.50
2018-05-11T14:56:32.973Z,41.40
2018-05-11T14:59:00.829Z,40.80
2018-05-11T15:01:28.365Z,39.80
2018-05-11T15:03:56.689Z,41.10
2018-05-11T15:06:25.193Z,40.50
2018-05-11T15:08:53.530Z,40.80
2018-05-11T15:11:21.818Z,40.20
2018-05-11T15:13:50.135Z,38.90
2018-05-11T15:16:18.562Z,38.20
2018-05-11T15:18:46.871Z,39.00
2018-05-11T15:21:15.157Z,39.40
2018-05-11T15:23:44.207Z,39.00
2018-05-11T15:26:12.868Z,40.40
2018-05-11T15:28:40.422Z,39.80
2018-05-11T15:31:08.355Z,40.00
2018-05-11T15:33:35.906Z,40.80
2018-05-11T15:36:03.837Z,39.70
2018-05-11T15:38:31.395Z,40.60
2018-05-11T15:40:58.994Z,38.40
2018-05-11T15:43:27.358Z,37.80
2018-05-11T15:45:55.664Z,38.10
2018-05-11T15:48:24.020Z,38.50
2018-05-11T15:50:52.350Z,39.20
2018-05-11T15:53:20.666Z,40.10
2018-05-11T15:55:48.979Z,39.10
2018-05-11T15:58:17.292Z,40.00
2018-05-11T16:00:45.226Z,40.00
2018-05-11T16:03:12.790Z,39.30
2018-05-11T16:05:41.150Z,38.10
2018-05-11T16:08:09.478Z,37.70
2018-05-11T16:10:37.769Z,37.30
2018-05-11T16:13:06.087Z,36.70
2018-05-11T16:15:33.606Z,36.90
2018-05-11T16:18:01.545Z,35.90
2018-05-11T16:20:29.893Z,36.40
2018-05-11T16:22:58.188Z,36.90
2018-05-11T16:25:26.486Z,36.90
2018-05-11T16:27:54.817Z,37.30
2018-05-11T16:30:23.169Z,36.80
2018-05-11T16:32:51.487Z,37.70
2018-05-11T16:35:19.763Z,37.90
2018-05-11T16:37:47.307Z,38.20
2018-05-11T16:40:15.994Z,40.10
2018-05-11T16:42:46.182Z,39.60
2018-05-11T16:45:14.495Z,40.60
2018-05-11T16:47:42.834Z,41.60
2018-05-11T16:50:11.432Z,42.30
2018-05-11T16:52:39.696Z,43.10
2018-05-11T16:55:08.052Z,42.80
2018-05-11T16:57:36.411Z,41.80
2018-05-11T17:00:04.568Z,41.10
2018-05-11T17:02:32.140Z,40.90
2018-05-11T17:05:00.629Z,39.80
2018-05-11T17:07:28.598Z,40.20
2018-05-11T17:09:56.963Z,39.40
2018-05-11T17:12:24.922Z,39.30
2018-05-11T17:14:53.238Z,39.10
2018-05-11T17:17:21.545Z,39.20
2018-05-11T17:19:49.891Z,40.00
2018-05-11T17:22:18.458Z,40.90
2018-05-11T17:24:46.814Z,40.30
2018-05-11T17:27:15.113Z,40.50
2018-05-11T17:29:43.434Z,41.00
2018-05-11T17:32:11.742Z,40.90
2018-05-11T17:34:40.064Z,40.70
2018-05-11T17:37:09.113Z,41.00
2018-05-11T17:39:36.679Z,40.70
2018-05-11T19:11:30.243Z,49.60
2018-05-11T19:13:58.541Z,49.20
2018-05-11T19:16:26.087Z,49.70
